createdAt,value
2023-06-30T00:00:12.875Z,573.38
2023-06-30T00:02:42.389Z,549.42
2023-06-30T00:05:12.381Z,552.22
2023-06-30T00:07:41.004Z,546.92
2023-06-30T00:10:10.445Z,566.38
2023-06-30T00:12:38.809Z,564.03
2023-06-30T00:15:07.839Z,559.30
2023-06-30T00:17:36.591Z,558.90
2023-06-30T00:20:07.022Z,555.47
2023-06-30T00:22:37.206Z,565.47
2023-06-30T00:25:06.090Z,575.35
2023-06-30T00:27:34.451Z,554.97
2023-06-30T00:30:02.500Z,556.58
2023-06-30T00:32:32.880Z,540.95
2023-06-30T00:35:01.200Z,546.90
2023-06-30T00:37:29.283Z,550.40
2023-06-30T00:39:58.670Z,544.83
2023-06-30T00:42:26.682Z,545.03
2023-06-30T00:44:55.245Z,541.30
2023-06-30T00:47:23.577Z,523.53
2023-06-30T00:49:51.601Z,536.90
2023-06-30T00:52:19.691Z,544.13
2023-06-30T00:54:47.729Z,537.20
2023-06-30T00:57:17.177Z,516.87
2023-06-30T00:59:45.219Z,504.33
2023-06-30T01:02:21.701Z,504.03
2023-06-30T01:04:59.815Z,502.30
2023-06-30T01:07:33.496Z,518.50
2023-06-30T01:10:06.265Z,529.90
2023-06-30T01:12:36.885Z,520.30
2023-06-30T01:15:06.496Z,529.90
2023-06-30T01:17:35.989Z,532.23
2023-06-30T01:20:07.946Z,509.40
2023-06-30T01:22:44.925Z,502.90
2023-06-30T01:25:19.686Z,503.40
2023-06-30T01:27:50.449Z,499.37
2023-06-30T01:30:19.848Z,505.33
2023-06-30T01:32:51.567Z,493.70
2023-06-30T01:35:20.034Z,493.67
2023-06-30T01:37:48.043Z,491.80
2023-06-30T01:40:18.104Z,502.43
2023-06-30T01:42:48.608Z,485.43
2023-06-30T01:45:18.113Z,490.53
2023-06-30T01:47:46.385Z,504.17
2023-06-30T01:50:15.519Z,493.80
2023-06-30T01:52:44.105Z,493.73
2023-06-30T01:55:12.134Z,483.17
2023-06-30T01:57:40.168Z,493.77
2023-06-30T02:00:10.748Z,476.87
2023-06-30T02:02:39.044Z,479.20
2023-06-30T02:05:07.428Z,473.10
2023-06-30T02:07:35.635Z,482.03
2023-06-30T02:10:03.945Z,489.17
2023-06-30T02:12:31.960Z,483.80
2023-06-30T02:14:59.973Z,469.87
2023-06-30T02:17:32.396Z,487.87
2023-06-30T02:20:00.705Z,478.93
2023-06-30T02:22:28.863Z,481.50
2023-06-30T02:24:57.552Z,462.33
2023-06-30T02:27:25.941Z,487.07
2023-06-30T02:29:53.947Z,496.97
2023-06-30T02:32:21.985Z,483.27
2023-06-30T02:34:51.430Z,472.77
2023-06-30T02:37:19.449Z,461.87
2023-06-30T02:39:47.455Z,461.03
2023-06-30T02:42:15.432Z,473.83
2023-06-30T02:44:43.435Z,462.50
2023-06-30T02:47:11.486Z,471.10
2023-06-30T02:49:39.496Z,453.70
2023-06-30T02:52:09.503Z,473.80
2023-06-30T02:54:37.930Z,466.83
2023-06-30T02:57:06.673Z,491.00
2023-06-30T02:59:34.645Z,464.40
2023-06-30T03:02:03.938Z,462.00
2023-06-30T03:04:33.062Z,466.00
2023-06-30T03:07:01.106Z,462.47
2023-06-30T03:09:30.575Z,454.60
2023-06-30T03:11:58.593Z,468.10
2023-06-30T03:14:26.599Z,467.13
2023-06-30T03:16:54.681Z,476.83
2023-06-30T03:19:22.723Z,447.17
2023-06-30T03:21:50.689Z,468.73
2023-06-30T03:24:18.728Z,470.80
2023-06-30T03:26:48.911Z,469.57
2023-06-30T03:29:16.899Z,467.00
2023-06-30T03:31:44.864Z,461.43
2023-06-30T03:34:13.471Z,467.27
2023-06-30T03:36:41.468Z,473.10
2023-06-30T03:39:09.513Z,466.40
2023-06-30T03:41:37.644Z,465.20
2023-06-30T03:44:07.092Z,478.57
2023-06-30T03:46:35.421Z,462.33
2023-06-30T03:49:03.520Z,473.30
2023-06-30T03:51:31.683Z,467.60
2023-06-30T03:53:59.778Z,464.37
2023-06-30T03:56:27.774Z,470.20
2023-06-30T03:58:55.778Z,470.67
2023-06-30T04:01:26.830Z,474.37
2023-06-30T04:03:55.179Z,472.73
2023-06-30T04:06:23.321Z,472.40
2023-06-30T04:08:51.288Z,457.83
2023-06-30T04:11:19.270Z,488.80
2023-06-30T04:13:48.708Z,475.97
2023-06-30T04:16:18.566Z,486.33
2023-06-30T04:18:47.980Z,477.03
2023-06-30T04:21:15.996Z,463.57
2023-06-30T04:23:43.967Z,478.67
2023-06-30T04:26:12.000Z,473.67
2023-06-30T04:28:40.017Z,470.87
2023-06-30T04:31:08.084Z,474.90
2023-06-30T04:33:36.125Z,462.73
2023-06-30T04:36:08.344Z,482.40
2023-06-30T04:38:36.605Z,478.80
2023-06-30T04:41:04.787Z,495.87
2023-06-30T04:43:33.973Z,500.03
2023-06-30T04:46:02.081Z,483.53
2023-06-30T04:48:30.190Z,499.70
2023-06-30T04:50:58.160Z,489.13
2023-06-30T04:53:27.530Z,511.35
2023-06-30T04:55:55.647Z,518.67
2023-06-30T04:58:23.667Z,515.55
2023-06-30T05:00:51.712Z,533.38
2023-06-30T05:03:20.456Z,524.00
2023-06-30T05:05:48.526Z,532.20
2023-06-30T05:08:16.628Z,522.85
2023-06-30T05:10:46.070Z,529.93
2023-06-30T05:13:14.083Z,539.93
2023-06-30T05:15:42.242Z,531.73
2023-06-30T05:18:10.375Z,525.87
2023-06-30T05:20:40.406Z,529.50
2023-06-30T05:23:08.459Z,528.77
2023-06-30T05:25:36.682Z,532.85
2023-06-30T05:28:06.343Z,513.73
2023-06-30T05:30:34.334Z,533.33
2023-06-30T05:33:02.392Z,539.90
2023-06-30T05:35:30.372Z,541.00
2023-06-30T05:37:58.395Z,548.67
2023-06-30T05:40:26.388Z,557.10
2023-06-30T05:42:54.345Z,577.23
2023-06-30T05:45:23.789Z,574.63
2023-06-30T05:47:51.770Z,583.77
2023-06-30T05:50:23.002Z,593.03
2023-06-30T05:52:51.162Z,568.23
2023-06-30T05:55:19.220Z,591.27
2023-06-30T05:57:47.244Z,586.03
2023-06-30T06:00:16.461Z,572.65
2023-06-30T06:02:45.888Z,619.63
2023-06-30T06:05:14.082Z,590.75
2023-06-30T06:07:42.471Z,593.67
2023-06-30T06:10:11.252Z,619.45
2023-06-30T06:12:41.009Z,596.70
2023-06-30T06:15:10.293Z,616.67
2023-06-30T06:17:38.345Z,602.42
2023-06-30T06:20:08.852Z,635.42
2023-06-30T06:22:36.856Z,620.40
2023-06-30T06:25:05.390Z,600.15
2023-06-30T06:27:35.856Z,647.22
2023-06-30T06:30:05.236Z,627.83
2023-06-30T06:32:33.302Z,643.67
2023-06-30T06:35:01.382Z,638.17
2023-06-30T06:37:30.738Z,632.05
2023-06-30T06:39:58.735Z,633.08
2023-06-30T06:42:26.704Z,646.03
2023-06-30T06:44:54.825Z,615.78
2023-06-30T06:48:00.392Z,629.80
2023-06-30T06:50:28.463Z,626.88
2023-06-30T06:52:57.885Z,629.88
2023-06-30T06:55:25.934Z,687.38
2023-06-30T06:57:55.024Z,613.17
2023-06-30T07:00:23.268Z,609.92
2023-06-30T07:02:51.357Z,608.75
2023-06-30T07:05:19.560Z,603.17
2023-06-30T07:07:48.199Z,630.13
2023-06-30T07:10:17.747Z,627.05
2023-06-30T07:12:45.719Z,616.75
2023-06-30T07:15:13.748Z,607.95
2023-06-30T07:17:42.653Z,623.65
2023-06-30T07:20:12.112Z,618.75
2023-06-30T07:22:40.092Z,580.50
2023-06-30T07:25:08.607Z,595.33
2023-06-30T07:27:39.849Z,592.03
2023-06-30T07:30:08.823Z,595.75
2023-06-30T07:32:36.826Z,591.88
2023-06-30T07:35:05.162Z,588.75
2023-06-30T07:37:33.178Z,577.65
2023-06-30T07:40:15.392Z,585.67
2023-06-30T07:42:46.752Z,572.78
2023-06-30T07:45:16.638Z,594.83
2023-06-30T07:47:46.880Z,572.55
2023-06-30T07:50:16.358Z,583.80
2023-06-30T07:52:45.749Z,589.17
2023-06-30T07:55:14.803Z,573.58
2023-06-30T07:57:42.888Z,591.58
2023-06-30T08:00:16.545Z,588.45
2023-06-30T08:02:44.807Z,590.22
2023-06-30T08:05:13.367Z,583.20
2023-06-30T08:07:48.627Z,591.90
2023-06-30T08:10:18.080Z,581.03
2023-06-30T08:12:46.278Z,572.83
2023-06-30T08:15:15.815Z,573.28
2023-06-30T08:17:54.694Z,587.25
2023-06-30T08:20:25.809Z,570.10
2023-06-30T08:22:54.454Z,607.13
2023-06-30T08:25:24.530Z,598.65
2023-06-30T08:27:53.232Z,584.65
2023-06-30T08:30:24.894Z,597.92
2023-06-30T08:32:55.518Z,604.75
2023-06-30T08:35:23.990Z,623.03
2023-06-30T08:37:53.480Z,605.85
2023-06-30T08:40:26.661Z,611.45
2023-06-30T08:42:57.331Z,615.13
2023-06-30T08:45:28.947Z,622.63
2023-06-30T08:48:00.756Z,632.65
2023-06-30T08:50:29.708Z,641.72
2023-06-30T08:52:57.752Z,656.90
2023-06-30T08:55:25.848Z,669.92
2023-06-30T08:57:57.358Z,664.10
2023-06-30T09:00:27.946Z,665.00
2023-06-30T09:02:57.324Z,664.38
2023-06-30T09:05:26.720Z,662.60
2023-06-30T09:07:56.292Z,699.75
2023-06-30T09:10:26.650Z,692.05
2023-06-30T09:12:56.400Z,688.22
2023-06-30T09:15:26.074Z,690.78
2023-06-30T09:17:56.966Z,693.53
2023-06-30T09:20:25.156Z,693.17
2023-06-30T09:22:56.830Z,697.10
2023-06-30T09:25:45.064Z,698.60
2023-06-30T09:28:15.590Z,688.05
2023-06-30T09:30:47.047Z,683.97
2023-06-30T09:33:17.563Z,670.40
2023-06-30T09:35:47.050Z,664.47
2023-06-30T09:38:16.406Z,674.55
2023-06-30T09:40:45.490Z,662.08
2023-06-30T09:43:19.300Z,667.92
2023-06-30T09:45:49.454Z,683.38
2023-06-30T09:48:19.307Z,679.60
2023-06-30T09:50:47.315Z,669.22
2023-06-30T09:53:20.796Z,664.42
2023-06-30T09:55:50.632Z,711.38
2023-06-30T09:58:20.108Z,675.00
2023-06-30T10:00:48.922Z,680.15
2023-06-30T10:03:18.363Z,670.92
2023-06-30T10:05:49.425Z,670.00
2023-06-30T10:08:18.260Z,678.05
2023-06-30T10:10:46.297Z,662.35
2023-06-30T10:13:17.434Z,651.60
2023-06-30T10:15:46.461Z,649.58
2023-06-30T10:18:18.256Z,651.40
2023-06-30T10:20:50.011Z,641.45
2023-06-30T10:23:20.606Z,624.50
2023-06-30T10:25:50.260Z,616.55
2023-06-30T10:28:19.176Z,600.88
2023-06-30T10:30:48.082Z,582.17
2023-06-30T10:33:16.154Z,573.40
2023-06-30T10:35:45.136Z,588.55
2023-06-30T10:38:15.131Z,602.90
2023-06-30T10:40:43.206Z,613.33
2023-06-30T10:43:12.262Z,661.97
2023-06-30T10:46:06.430Z,646.55
2023-06-30T10:48:35.292Z,639.58
2023-06-30T10:51:06.513Z,645.38
2023-06-30T10:53:37.525Z,635.25
2023-06-30T10:56:06.052Z,638.40
2023-06-30T10:58:42.896Z,613.65
2023-06-30T11:01:10.880Z,615.53
2023-06-30T11:04:13.817Z,599.50
2023-06-30T11:06:47.332Z,582.63
2023-06-30T11:09:16.696Z,564.13
2023-06-30T11:11:51.489Z,573.40
2023-06-30T11:14:33.960Z,558.55
2023-06-30T11:17:06.555Z,550.40
2023-06-30T11:19:36.874Z,539.57
2023-06-30T11:22:22.941Z,565.80
2023-06-30T11:24:52.450Z,552.40
2023-06-30T11:27:23.380Z,564.35
2023-06-30T11:29:52.328Z,557.50
2023-06-30T11:32:26.754Z,568.80
2023-06-30T11:34:56.474Z,558.50
2023-06-30T11:37:24.643Z,557.50
2023-06-30T11:39:54.380Z,567.57
2023-06-30T11:42:22.961Z,551.13
2023-06-30T11:44:51.650Z,547.67
2023-06-30T11:47:23.810Z,549.37
2023-06-30T11:49:52.504Z,549.13
2023-06-30T11:52:21.401Z,563.20
2023-06-30T11:54:49.411Z,556.57
2023-06-30T11:57:18.865Z,570.00
2023-06-30T11:59:47.280Z,589.47
2023-06-30T12:02:15.355Z,603.10
2023-06-30T12:04:49.405Z,615.05
2023-06-30T12:07:17.900Z,635.03
2023-06-30T12:09:47.949Z,639.78
2023-06-30T12:12:29.395Z,635.47
2023-06-30T12:14:58.281Z,643.53
2023-06-30T12:17:30.040Z,635.78
2023-06-30T12:19:58.270Z,615.97
2023-06-30T12:22:28.345Z,650.50
2023-06-30T12:24:57.270Z,594.45
2023-06-30T12:27:27.327Z,580.37
2023-06-30T12:29:56.970Z,574.47
2023-06-30T12:32:29.619Z,561.90
2023-06-30T12:35:02.305Z,597.95
2023-06-30T12:37:32.317Z,559.53
2023-06-30T12:40:00.920Z,554.07
2023-06-30T12:42:30.725Z,543.30
2023-06-30T12:45:00.500Z,536.13
2023-06-30T12:47:28.603Z,548.77
2023-06-30T12:49:56.677Z,548.72
2023-06-30T12:52:24.690Z,572.80
2023-06-30T12:54:53.769Z,549.50
2023-06-30T12:57:21.828Z,552.13
2023-06-30T12:59:49.802Z,550.78
2023-06-30T13:02:19.403Z,537.87
2023-06-30T13:04:47.388Z,541.67
2023-06-30T13:07:15.469Z,535.50
2023-06-30T13:09:43.537Z,513.20
2023-06-30T13:12:11.791Z,538.20
2023-06-30T13:14:39.797Z,529.53
2023-06-30T13:17:08.516Z,533.27
2023-06-30T13:19:38.078Z,533.60
2023-06-30T13:22:06.946Z,519.95
2023-06-30T13:24:34.961Z,533.53
2023-06-30T13:27:03.000Z,538.40
2023-06-30T13:29:31.041Z,515.93
2023-06-30T13:31:59.001Z,527.63
2023-06-30T13:34:27.017Z,522.40
2023-06-30T13:36:56.481Z,523.50
2023-06-30T13:39:24.538Z,520.60
2023-06-30T13:41:52.524Z,537.72
2023-06-30T13:44:20.558Z,536.03
2023-06-30T13:46:48.558Z,590.72
2023-06-30T13:49:16.610Z,560.88
2023-06-30T13:51:44.586Z,559.65
2023-06-30T13:54:14.006Z,570.67
2023-06-30T13:56:42.023Z,567.33
2023-06-30T13:59:09.998Z,571.03
2023-06-30T14:01:38.088Z,577.63
2023-06-30T14:04:06.378Z,556.00
2023-06-30T14:06:34.542Z,603.03
2023-06-30T14:09:02.545Z,609.50
2023-06-30T14:11:31.993Z,585.25
2023-06-30T14:14:04.396Z,601.35
2023-06-30T14:16:32.859Z,575.63
2023-06-30T14:19:01.033Z,526.83
2023-06-30T14:21:31.697Z,536.63
2023-06-30T14:24:00.345Z,529.03
2023-06-30T14:26:30.948Z,545.38
2023-06-30T14:29:00.416Z,550.50
2023-06-30T14:31:28.439Z,576.13
2023-06-30T14:33:56.476Z,577.75
2023-06-30T14:36:24.491Z,592.50
2023-06-30T14:38:52.507Z,594.05
2023-06-30T14:41:20.570Z,603.38
2023-06-30T14:43:48.574Z,609.17
2023-06-30T14:46:18.026Z,622.00
2023-06-30T14:48:46.047Z,644.45
2023-06-30T14:51:14.049Z,652.42
2023-06-30T14:53:42.160Z,651.90
2023-06-30T14:56:10.161Z,663.25
2023-06-30T14:58:38.487Z,684.03
2023-06-30T15:01:06.976Z,696.35
2023-06-30T15:03:36.791Z,692.45
2023-06-30T15:06:04.944Z,668.42
2023-06-30T15:08:33.110Z,671.97
2023-06-30T15:11:01.858Z,656.28
2023-06-30T15:13:30.008Z,657.00
2023-06-30T15:15:58.639Z,634.80
2023-06-30T15:18:26.804Z,602.42
2023-06-30T15:20:56.160Z,603.93
2023-06-30T15:23:24.283Z,573.03
2023-06-30T15:25:52.414Z,573.87
2023-06-30T15:28:20.443Z,550.03
2023-06-30T15:30:48.754Z,558.00
2023-06-30T15:33:17.196Z,536.10
2023-06-30T15:35:45.608Z,536.67
2023-06-30T15:38:15.239Z,521.30
2023-06-30T15:40:43.461Z,512.97
2023-06-30T15:43:11.550Z,529.83
2023-06-30T15:45:39.544Z,516.17
2023-06-30T15:48:14.001Z,522.45
2023-06-30T15:50:42.506Z,510.10
2023-06-30T15:53:11.805Z,504.03
2023-06-30T15:55:43.516Z,502.33
2023-06-30T15:58:11.784Z,506.80
2023-06-30T16:00:40.526Z,497.73
2023-06-30T16:03:08.605Z,511.33
2023-06-30T16:05:37.170Z,534.85
2023-06-30T16:08:05.605Z,502.33
2023-06-30T16:10:33.669Z,523.55
2023-06-30T16:13:06.322Z,525.10
2023-06-30T16:15:36.250Z,505.08
2023-06-30T16:18:04.590Z,487.95
2023-06-30T16:20:32.616Z,489.53
2023-06-30T16:23:00.656Z,496.63
2023-06-30T16:25:28.648Z,470.63
2023-06-30T16:27:56.688Z,484.40
2023-06-30T16:30:30.964Z,481.37
2023-06-30T16:32:59.969Z,480.30
2023-06-30T16:35:28.500Z,473.87
2023-06-30T16:37:57.690Z,488.53
2023-06-30T16:40:25.877Z,476.67
2023-06-30T16:42:54.048Z,469.27
2023-06-30T16:45:22.588Z,470.97
2023-06-30T16:47:52.023Z,478.70
2023-06-30T16:50:20.050Z,496.13
2023-06-30T16:52:48.140Z,567.08
2023-06-30T16:55:17.544Z,558.45
2023-06-30T16:57:45.553Z,578.42
2023-06-30T17:00:14.609Z,592.45
2023-06-30T17:02:42.731Z,601.35
2023-06-30T17:05:13.687Z,601.15
2023-06-30T17:07:41.715Z,592.33
2023-06-30T17:10:10.358Z,593.00
2023-06-30T17:12:39.656Z,577.40
2023-06-30T17:15:10.368Z,576.63
2023-06-30T17:17:38.533Z,569.27
2023-06-30T17:20:07.815Z,585.78
2023-06-30T17:22:37.191Z,601.30
2023-06-30T17:25:06.177Z,584.33
2023-06-30T17:27:34.413Z,597.88
2023-06-30T17:30:02.429Z,587.92
2023-06-30T17:32:30.516Z,594.40
2023-06-30T17:34:58.552Z,582.25
2023-06-30T17:37:26.582Z,580.00
2023-06-30T17:39:55.946Z,577.70
2023-06-30T17:42:23.967Z,565.00
2023-06-30T17:44:52.040Z,592.67
2023-06-30T17:47:20.034Z,562.70
2023-06-30T17:49:48.400Z,539.37
2023-06-30T17:52:16.963Z,521.63
2023-06-30T17:54:45.191Z,519.77
2023-06-30T17:57:15.335Z,507.97
2023-06-30T17:59:43.331Z,508.43
2023-06-30T18:02:11.393Z,546.93
2023-06-30T18:04:39.571Z,529.20
2023-06-30T18:07:09.939Z,532.60
2023-06-30T18:09:39.513Z,529.93
2023-06-30T18:12:08.478Z,526.47
2023-06-30T18:14:38.611Z,508.83
2023-06-30T18:17:07.361Z,522.42
2023-06-30T18:19:35.455Z,542.08
2023-06-30T18:22:03.923Z,546.37
2023-06-30T18:24:31.948Z,531.73
2023-06-30T18:26:59.949Z,529.90
2023-06-30T18:29:27.969Z,544.47
2023-06-30T18:32:00.300Z,529.72
2023-06-30T18:34:30.063Z,522.72
2023-06-30T18:36:58.107Z,526.35
2023-06-30T18:39:26.172Z,515.07
2023-06-30T18:41:55.851Z,501.87
2023-06-30T18:44:25.949Z,479.40
2023-06-30T18:46:54.081Z,475.20
2023-06-30T18:49:24.828Z,480.87
2023-06-30T18:51:55.132Z,494.97
2023-06-30T18:54:23.414Z,481.47
2023-06-30T18:56:51.937Z,478.37
2023-06-30T18:59:19.962Z,459.20
2023-06-30T19:01:48.223Z,463.63
2023-06-30T19:04:16.686Z,455.13
2023-06-30T19:06:46.410Z,451.63
2023-06-30T19:09:14.660Z,442.33
2023-06-30T19:11:42.738Z,432.27
2023-06-30T19:14:10.850Z,439.00
2023-06-30T19:16:38.893Z,445.20
2023-06-30T19:19:06.864Z,459.23
2023-06-30T19:21:34.856Z,456.53
2023-06-30T19:24:04.319Z,447.60
2023-06-30T19:26:32.336Z,447.70
2023-06-30T19:29:00.328Z,432.97
2023-06-30T19:31:28.433Z,437.07
2023-06-30T19:33:56.527Z,434.67
2023-06-30T19:36:26.231Z,424.07
2023-06-30T19:38:54.270Z,443.77
2023-06-30T19:41:24.657Z,438.40
2023-06-30T19:43:52.873Z,437.73
2023-06-30T19:46:20.980Z,450.50
2023-06-30T19:48:49.115Z,435.13
2023-06-30T19:51:17.145Z,440.53
2023-06-30T19:53:45.196Z,424.20
2023-06-30T19:56:14.803Z,444.27
2023-06-30T19:58:44.855Z,434.50
2023-06-30T20:01:12.865Z,436.83
2023-06-30T20:03:41.160Z,365.13
2023-06-30T20:06:09.449Z,428.93
2023-06-30T20:08:37.432Z,450.47
2023-06-30T20:11:05.563Z,437.97
2023-06-30T20:13:33.566Z,410.73
2023-06-30T20:16:04.153Z,424.53
2023-06-30T20:18:32.169Z,425.03
2023-06-30T20:21:00.171Z,260.67
2023-06-30T20:23:28.211Z,427.17
2023-06-30T20:25:56.585Z,441.87
2023-06-30T20:28:24.578Z,399.53
2023-06-30T20:30:52.642Z,415.23
2023-06-30T20:33:22.075Z,424.27
2023-06-30T20:35:50.121Z,421.27
2023-06-30T20:38:19.177Z,423.87
2023-06-30T20:40:47.806Z,425.40
2023-06-30T20:43:16.296Z,385.67
2023-06-30T20:45:44.319Z,402.30
2023-06-30T20:48:12.402Z,395.80
2023-06-30T20:50:41.908Z,254.18
2023-06-30T20:53:10.180Z,408.73
2023-06-30T20:55:38.267Z,397.90
2023-06-30T20:58:06.265Z,387.80
2023-06-30T21:00:34.246Z,392.57
2023-06-30T21:03:02.392Z,436.73
2023-06-30T21:05:30.428Z,383.60
2023-06-30T21:07:59.828Z,452.17
2023-06-30T21:10:27.875Z,434.63
2023-06-30T21:13:00.567Z,419.50
2023-06-30T21:15:29.180Z,417.13
2023-06-30T21:17:57.242Z,423.47
2023-06-30T21:20:25.232Z,423.53
2023-06-30T21:22:53.240Z,406.33
2023-06-30T21:25:22.740Z,467.53
2023-06-30T21:27:50.774Z,435.30
2023-06-30T21:30:18.866Z,409.53
2023-06-30T21:32:46.911Z,263.02
2023-06-30T21:35:14.973Z,449.60
2023-06-30T21:37:42.996Z,400.30
2023-06-30T21:40:11.352Z,391.43
2023-06-30T21:42:40.795Z,402.35
2023-06-30T21:45:09.555Z,389.20
2023-06-30T21:47:37.633Z,388.97
2023-06-30T21:50:07.247Z,394.93
2023-06-30T21:52:35.446Z,397.33
2023-06-30T21:55:04.392Z,414.53
2023-06-30T21:57:32.421Z,417.60
2023-06-30T22:00:01.792Z,401.40
2023-06-30T22:02:29.947Z,417.53
2023-06-30T22:04:58.318Z,408.93
2023-06-30T22:07:26.419Z,385.77
2023-06-30T22:09:54.395Z,390.67
2023-06-30T22:12:22.368Z,398.07
2023-06-30T22:14:50.315Z,401.03
2023-06-30T22:17:19.738Z,419.13
2023-06-30T22:19:47.775Z,409.57
2023-06-30T22:22:15.755Z,391.77
2023-06-30T22:24:43.778Z,382.33
2023-06-30T22:27:11.802Z,370.10
2023-06-30T22:29:40.002Z,379.70
2023-06-30T22:32:08.728Z,407.03
2023-06-30T22:34:38.097Z,381.90
2023-06-30T22:37:06.819Z,393.37
2023-06-30T22:39:34.822Z,402.73
2023-06-30T22:42:02.814Z,390.17
2023-06-30T22:44:30.822Z,388.23
2023-06-30T22:46:58.845Z,391.00
2023-06-30T22:49:26.873Z,418.90
2023-06-30T22:51:56.511Z,406.10
2023-06-30T22:54:24.543Z,388.67
2023-06-30T22:56:52.723Z,396.07
2023-06-30T22:59:20.765Z,383.87
2023-06-30T23:01:48.740Z,381.23
2023-06-30T23:04:16.860Z,389.13
2023-06-30T23:06:45.037Z,409.80
2023-06-30T23:09:14.366Z,378.37
2023-06-30T23:11:42.336Z,412.43
2023-06-30T23:14:10.390Z,403.33
2023-06-30T23:16:39.372Z,433.17
2023-06-30T23:19:08.266Z,408.10
2023-06-30T23:21:37.175Z,399.53
2023-06-30T23:24:10.564Z,415.17
2023-06-30T23:26:41.433Z,411.20
2023-06-30T23:29:10.570Z,389.03
2023-06-30T23:31:39.530Z,378.17
2023-06-30T23:34:07.890Z,387.37
2023-06-30T23:36:36.421Z,380.37
2023-06-30T23:39:04.967Z,365.23
2023-06-30T23:41:33.676Z,375.00
2023-06-30T23:44:03.186Z,420.93
2023-06-30T23:46:31.602Z,363.30
2023-06-30T23:48:59.885Z,381.97
2023-06-30T23:51:27.856Z,365.07
2023-06-30T23:53:55.845Z,393.03
2023-06-30T23:56:23.824Z,372.03
2023-06-30T23:58:51.832Z,380.83
